Time;durP1;ratioP1;P1;durP2;ratioP2;P2;SDS_P1;SDS_P2;PMS_P1;PMS_P2;Temp;Humidity;BMP_temperature;BMP_pressure;BME280_temperature;BME280_humidity;BME280_pressure;Samples;Min_cycle;Max_cycle;Signal;HPM_P1;HPM_P2
2021/01/26 00:00:48;;;;;;;1.10;1.00;;;-5.90;99.90;;;;;;4999905;28;20245;-70
2021/01/26 00:03:14;;;;;;;1.20;1.10;;;-5.90;99.90;;;;;;5000507;28;20717;-70
2021/01/26 00:05:40;;;;;;;1.47;1.10;;;-6.00;99.90;;;;;;4999750;28;20272;-70
2021/01/26 00:08:06;;;;;;;1.17;1.10;;;-6.00;99.90;;;;;;4987746;28;20301;-70
2021/01/26 00:10:31;;;;;;;1.20;1.10;;;-6.00;99.90;;;;;;5000324;28;20206;-70
2021/01/26 00:12:57;;;;;;;1.37;1.00;;;-6.00;99.90;;;;;;5001472;28;20297;-70
2021/01/26 00:15:23;;;;;;;1.30;1.20;;;-5.90;99.90;;;;;;4999823;28;20215;-70
2021/01/26 00:17:48;;;;;;;1.13;1.02;;;-5.90;99.90;;;;;;5000544;28;20213;-70
2021/01/26 00:20:16;;;;;;;1.65;1.15;;;-5.90;99.90;;;;;;4999562;28;20199;-70
2021/01/26 00:22:43;;;;;;;1.73;1.00;;;-5.90;99.90;;;;;;5002201;28;20681;-71
2021/01/26 00:25:12;;;;;;;1.33;1.20;;;-6.00;99.90;;;;;;5000464;28;20647;-70
2021/01/26 00:27:38;;;;;;;1.10;1.00;;;-6.00;99.90;;;;;;5001474;28;20221;-70
2021/01/26 00:30:08;;;;;;;1.20;1.10;;;-6.10;99.90;;;;;;4998750;28;20242;-70
2021/01/26 00:32:33;;;;;;;1.00;1.00;;;-6.10;99.90;;;;;;4996399;28;20207;-70
2021/01/26 00:34:59;;;;;;;1.50;1.10;;;-6.10;99.90;;;;;;5000999;28;20214;-70
2021/01/26 00:37:25;;;;;;;1.90;1.17;;;-6.20;99.90;;;;;;4999153;28;20195;-70
2021/01/26 00:39:51;;;;;;;1.20;1.10;;;-6.20;99.90;;;;;;4997329;28;20217;-70
2021/01/26 00:42:16;;;;;;;1.93;1.20;;;-6.20;99.90;;;;;;5000970;28;20246;-70
2021/01/26 00:44:42;;;;;;;1.20;1.10;;;-6.20;99.90;;;;;;5001472;28;20208;-70
2021/01/26 00:47:08;;;;;;;1.20;1.10;;;-6.20;99.90;;;;;;4982347;28;20290;-70
2021/01/26 00:49:33;;;;;;;1.10;1.00;;;-6.20;99.90;;;;;;5000770;28;20626;-70
2021/01/26 00:51:59;;;;;;;1.20;1.10;;;-6.20;99.90;;;;;;5001127;28;20269;-70
2021/01/26 00:54:25;;;;;;;1.20;1.10;;;-6.20;99.90;;;;;;4985455;28;20246;-70
2021/01/26 00:56:50;;;;;;;1.20;1.10;;;-6.20;99.90;;;;;;5001187;28;20633;-70
2021/01/26 00:59:16;;;;;;;1.20;1.10;;;-6.30;99.90;;;;;;4999318;28;20884;-70
2021/01/26 01:01:42;;;;;;;1.20;1.10;;;-6.30;99.90;;;;;;5000596;28;20817;-70
2021/01/26 01:04:07;;;;;;;1.07;1.07;;;-6.40;99.90;;;;;;4997500;28;20798;-70
2021/01/26 01:06:33;;;;;;;2.10;1.20;;;-6.40;99.90;;;;;;4984997;28;20199;-70
2021/01/26 01:08:59;;;;;;;1.10;1.00;;;-6.50;99.90;;;;;;5000468;28;20215;-70
2021/01/26 01:11:28;;;;;;;1.10;1.00;;;-6.50;99.90;;;;;;5002526;28;20202;-70
2021/01/26 01:13:54;;;;;;;1.10;1.00;;;-6.60;99.90;;;;;;4999298;28;20195;-70
2021/01/26 01:16:19;;;;;;;1.07;1.00;;;-6.60;99.90;;;;;;5001794;28;20223;-70
2021/01/26 01:18:45;;;;;;;1.10;1.00;;;-6.60;99.90;;;;;;5000003;28;20195;-70
2021/01/26 01:21:11;;;;;;;1.00;1.00;;;-6.60;99.90;;;;;;5000082;28;20208;-70
2021/01/26 01:23:36;;;;;;;1.37;1.20;;;-6.70;99.90;;;;;;5000654;28;20213;-70
2021/01/26 01:26:02;;;;;;;1.00;1.00;;;-6.70;99.90;;;;;;4999866;28;20203;-70
2021/01/26 01:28:28;;;;;;;1.73;1.13;;;-6.80;99.90;;;;;;5001016;28;20293;-70
2021/01/26 01:30:56;;;;;;;1.30;1.20;;;-6.70;99.90;;;;;;5001426;28;20199;-70
2021/01/26 01:33:21;;;;;;;1.20;1.10;;;-6.80;99.90;;;;;;4980454;28;20202;-70
2021/01/26 01:35:47;;;;;;;1.03;0.93;;;-6.80;99.90;;;;;;4995059;28;20207;-70
2021/01/26 01:38:13;;;;;;;1.57;1.10;;;-6.80;99.90;;;;;;4998472;28;20245;-70
2021/01/26 01:40:39;;;;;;;1.10;1.00;;;-6.80;99.90;;;;;;4995474;28;20199;-70
2021/01/26 01:43:04;;;;;;;1.00;1.00;;;-6.80;99.90;;;;;;4998451;28;20191;-70
2021/01/26 01:45:30;;;;;;;0.90;0.90;;;-6.80;99.90;;;;;;4998873;28;20206;-70
2021/01/26 01:48:00;;;;;;;0.90;0.90;;;-6.90;99.90;;;;;;4999428;28;20270;-70
2021/01/26 01:50:29;;;;;;;1.10;1.00;;;-6.90;99.90;;;;;;4997462;28;20207;-69
2021/01/26 01:53:05;;;;;;;1.17;1.07;;;-6.90;99.90;;;;;;4999865;28;20254;-70
2021/01/26 01:55:33;;;;;;;1.03;1.03;;;-7.00;99.90;;;;;;4998457;28;20210;-70
2021/01/26 01:58:15;;;;;;;3.20;1.00;;;-7.00;99.90;;;;;;4999416;28;20194;-70
2021/01/26 02:00:42;;;;;;;1.10;1.00;;;-7.00;99.90;;;;;;4998981;28;20713;-70
2021/01/26 02:03:29;;;;;;;1.77;1.03;;;-7.00;99.90;;;;;;4998386;28;20691;-70
2021/01/26 02:05:58;;;;;;;1.27;1.17;;;-7.00;99.90;;;;;;4997303;28;20260;-70
2021/01/26 02:08:33;;;;;;;1.07;1.00;;;-7.00;99.90;;;;;;4999161;28;20215;-70
2021/01/26 02:10:59;;;;;;;1.00;1.00;;;-6.90;99.90;;;;;;4998216;28;20682;-70
2021/01/26 02:13:24;;;;;;;1.00;1.00;;;-7.00;99.90;;;;;;4996381;28;20290;-70
2021/01/26 02:15:55;;;;;;;2.40;1.03;;;-7.00;99.90;;;;;;5000361;28;20241;-70
2021/01/26 02:19:01;;;;;;;1.13;1.10;;;-7.00;99.90;;;;;;4997362;28;20191;-70
2021/01/26 02:22:04;;;;;;;1.20;1.10;;;-7.00;99.90;;;;;;4997330;28;20196;-70
2021/01/26 02:24:57;;;;;;;1.20;1.10;;;-7.00;99.90;;;;;;4996655;28;20214;-70
2021/01/26 02:27:44;;;;;;;1.57;1.10;;;-6.90;99.90;;;;;;4998496;28;20230;-70
2021/01/26 02:30:28;;;;;;;1.30;1.20;;;-6.90;99.90;;;;;;4999320;28;20226;-69
2021/01/26 02:33:12;;;;;;;2.37;1.00;;;-6.80;99.90;;;;;;4997782;28;20601;-70
2021/01/26 02:35:59;;;;;;;2.40;1.10;;;-6.80;99.90;;;;;;4998433;28;20566;-70
2021/01/26 02:39:02;;;;;;;1.00;1.00;;;-6.90;99.90;;;;;;4996635;28;20678;-70
2021/01/26 02:41:40;;;;;;;2.60;1.00;;;-6.90;99.90;;;;;;5000056;28;20681;-70
2021/01/26 02:44:12;;;;;;;4.83;1.10;;;-6.90;99.90;;;;;;4997606;28;20665;-70
2021/01/26 02:46:55;;;;;;;1.67;1.10;;;-6.80;99.90;;;;;;4998801;28;20195;-70
2021/01/26 02:49:36;;;;;;;1.20;1.10;;;-6.80;99.90;;;;;;4997567;28;20197;-70
2021/01/26 02:52:14;;;;;;;1.20;1.10;;;-6.70;99.90;;;;;;4996816;28;20196;-70
2021/01/26 02:55:04;;;;;;;1.20;1.10;;;-6.80;99.90;;;;;;4997873;28;20244;-69
2021/01/26 02:57:42;;;;;;;1.27;1.17;;;-6.80;99.90;;;;;;4983791;28;20245;-70
2021/01/26 03:00:23;;;;;;;1.20;1.10;;;-6.90;99.90;;;;;;4983432;28;20538;-70
2021/01/26 03:03:13;;;;;;;1.50;1.40;;;-6.90;99.90;;;;;;4997857;28;21570;-70
2021/01/26 03:05:42;;;;;;;2.23;1.30;;;-6.90;99.90;;;;;;4998509;28;20205;-70
2021/01/26 03:08:15;;;;;;;1.13;1.00;;;-6.90;99.90;;;;;;4983419;28;20248;-70
2021/01/26 03:10:48;;;;;;;1.13;1.03;;;-6.80;99.90;;;;;;4983079;28;20191;-71
2021/01/26 03:13:16;;;;;;;1.50;1.23;;;-6.80;99.90;;;;;;4996896;28;20596;-70
2021/01/26 03:15:49;;;;;;;1.50;1.10;;;-6.90;99.90;;;;;;5001095;28;20211;-70
2021/01/26 03:18:18;;;;;;;1.17;1.07;;;-6.90;99.90;;;;;;4998411;28;20225;-70
2021/01/26 03:20:53;;;;;;;1.30;1.10;;;-6.90;99.90;;;;;;4996909;28;20191;-70
2021/01/26 03:23:38;;;;;;;1.03;0.97;;;-7.00;99.90;;;;;;4997651;28;20198;-70
2021/01/26 03:26:05;;;;;;;1.00;1.00;;;-7.00;99.90;;;;;;4999107;28;20202;-71
2021/01/26 03:28:32;;;;;;;1.40;1.13;;;-7.10;99.90;;;;;;4997390;28;20206;-70
2021/01/26 03:30:59;;;;;;;1.27;1.17;;;-7.10;99.90;;;;;;4997283;28;20201;-70
2021/01/26 03:33:35;;;;;;;1.00;1.00;;;-7.10;99.90;;;;;;4982173;28;20292;-70
2021/01/26 03:36:02;;;;;;;1.00;1.00;;;-7.10;99.90;;;;;;5002111;28;20229;-69
2021/01/26 03:38:30;;;;;;;1.17;1.10;;;-7.20;99.90;;;;;;5003596;28;20719;-70
2021/01/26 03:40:59;;;;;;;3.40;1.30;;;-7.20;99.90;;;;;;5002450;28;20302;-70
2021/01/26 03:43:25;;;;;;;1.00;1.00;;;-7.20;99.90;;;;;;5000595;28;20704;-70
2021/01/26 03:46:23;;;;;;;1.50;1.10;;;-7.20;99.90;;;;;;5000911;28;20199;-70
2021/01/26 03:49:34;;;;;;;1.30;1.20;;;-7.10;99.90;;;;;;4991163;28;20293;-70
2021/01/26 03:52:29;;;;;;;0.97;0.97;;;-7.20;99.90;;;;;;4998710;28;20207;-70
2021/01/26 03:55:03;;;;;;;1.20;1.10;;;-7.10;99.90;;;;;;5001132;28;20194;-70
2021/01/26 03:57:49;;;;;;;1.70;1.40;;;-7.20;99.90;;;;;;4999495;28;20734;-69
2021/01/26 04:00:18;;;;;;;1.20;1.10;;;-7.20;99.90;;;;;;4998819;28;20223;-70
2021/01/26 04:03:02;;;;;;;1.20;1.10;;;-7.30;99.90;;;;;;5000360;28;20229;-70
2021/01/26 04:05:36;;;;;;;1.23;1.13;;;-7.30;99.90;;;;;;4998044;28;20297;-70
2021/01/26 04:08:12;;;;;;;2.00;1.20;;;-7.40;99.90;;;;;;4999984;28;20205;-70
2021/01/26 04:10:44;;;;;;;1.20;1.10;;;-7.40;99.90;;;;;;4999967;28;20234;-70
2021/01/26 04:13:13;;;;;;;1.20;1.10;;;-7.40;99.90;;;;;;5000473;28;20666;-70
2021/01/26 04:15:46;;;;;;;1.27;1.17;;;-7.40;99.90;;;;;;4999399;28;20214;-70
2021/01/26 04:18:16;;;;;;;1.37;1.10;;;-7.40;99.90;;;;;;5002045;28;20278;-70
2021/01/26 04:20:42;;;;;;;1.47;1.17;;;-7.40;99.90;;;;;;4983357;28;20202;-71
2021/01/26 04:23:08;;;;;;;1.37;1.10;;;-7.50;99.90;;;;;;5001007;28;20217;-70
2021/01/26 04:25:38;;;;;;;1.20;1.10;;;-7.50;99.90;;;;;;5000196;28;20709;-70
2021/01/26 04:28:06;;;;;;;1.13;1.03;;;-7.50;99.90;;;;;;4999438;28;20186;-70
2021/01/26 04:30:32;;;;;;;1.10;1.00;;;-7.50;99.90;;;;;;4998727;28;20202;-70
2021/01/26 04:33:06;;;;;;;1.30;1.20;;;-7.60;99.90;;;;;;5002878;28;20226;-71
2021/01/26 04:35:32;;;;;;;1.00;1.00;;;-7.60;99.90;;;;;;4998045;28;20408;-71
2021/01/26 04:37:58;;;;;;;1.20;1.10;;;-7.60;99.90;;;;;;5002133;28;20716;-70
2021/01/26 04:40:26;;;;;;;1.30;1.20;;;-7.60;99.90;;;;;;4999864;28;20206;-70
2021/01/26 04:42:59;;;;;;;1.70;1.20;;;-7.60;99.90;;;;;;5000720;28;20187;-70
2021/01/26 04:45:38;;;;;;;1.17;1.00;;;-7.70;99.90;;;;;;4997961;28;20210;-70
2021/01/26 04:48:19;;;;;;;1.30;1.20;;;-7.70;99.90;;;;;;4999304;28;20230;-70
2021/01/26 04:50:55;;;;;;;1.33;1.20;;;-7.70;99.90;;;;;;5001556;28;20252;-71
2021/01/26 04:53:23;;;;;;;1.20;1.10;;;-7.70;99.90;;;;;;5002770;28;20692;-70
2021/01/26 04:55:53;;;;;;;1.10;1.00;;;-7.70;99.90;;;;;;4996837;28;20218;-70
2021/01/26 04:58:31;;;;;;;1.10;1.00;;;-7.70;99.90;;;;;;5000493;28;20685;-70
2021/01/26 05:01:24;;;;;;;1.00;1.00;;;-7.80;99.90;;;;;;4999345;28;20285;-70
2021/01/26 05:03:54;;;;;;;1.10;1.00;;;-7.80;99.90;;;;;;4998477;28;20624;-70
2021/01/26 05:06:24;;;;;;;1.20;1.10;;;-7.80;99.90;;;;;;4996703;28;20206;-70
2021/01/26 05:08:53;;;;;;;1.10;1.00;;;-7.70;99.90;;;;;;4996376;28;20206;-70
2021/01/26 05:11:27;;;;;;;1.60;1.20;;;-7.60;99.90;;;;;;4997440;28;20217;-71
2021/01/26 05:14:00;;;;;;;1.10;1.10;;;-7.60;99.90;;;;;;4995914;28;20662;-71
2021/01/26 05:16:42;;;;;;;1.17;1.10;;;-7.60;99.90;;;;;;4994964;28;20270;-70
2021/01/26 05:19:14;;;;;;;2.33;1.30;;;-7.50;99.90;;;;;;4993982;28;20308;-70
2021/01/26 05:22:02;;;;;;;1.00;1.00;;;-7.50;99.90;;;;;;4997407;28;20199;-70
2021/01/26 05:24:31;;;;;;;1.10;1.00;;;-7.60;99.90;;;;;;5008993;28;20277;-70
2021/01/26 05:26:59;;;;;;;1.03;1.00;;;-7.60;99.90;;;;;;4997947;28;20807;-70
2021/01/26 05:29:25;;;;;;;1.47;1.10;;;-7.60;99.90;;;;;;5014251;28;20202;-70
2021/01/26 05:31:59;;;;;;;1.97;1.20;;;-7.70;99.90;;;;;;5016823;28;20208;-70
2021/01/26 05:34:27;;;;;;;1.10;1.00;;;-7.70;99.90;;;;;;5016888;28;20210;-71
2021/01/26 05:36:53;;;;;;;1.20;1.10;;;-7.70;99.90;;;;;;5018647;28;20695;-71
2021/01/26 05:39:24;;;;;;;1.00;1.00;;;-7.70;99.90;;;;;;5017920;28;20280;-70
2021/01/26 05:41:49;;;;;;;2.43;1.13;;;-7.70;99.90;;;;;;5016130;28;20684;-70
2021/01/26 05:44:17;;;;;;;1.00;1.00;;;-7.80;99.90;;;;;;4997403;28;20196;-70
2021/01/26 05:46:46;;;;;;;1.10;1.00;;;-7.80;99.90;;;;;;5017618;28;20227;-70
2021/01/26 05:49:12;;;;;;;1.83;1.20;;;-7.80;99.90;;;;;;5008425;28;20227;-70
2021/01/26 05:51:43;;;;;;;1.33;1.10;;;-7.80;99.90;;;;;;4996551;28;20206;-70
2021/01/26 05:54:19;;;;;;;1.13;1.10;;;-7.80;99.90;;;;;;4993088;28;20202;-70
2021/01/26 05:56:55;;;;;;;1.17;1.07;;;-7.80;99.90;;;;;;4992880;28;20195;-69
2021/01/26 05:59:32;;;;;;;1.63;1.10;;;-7.80;99.90;;;;;;4997955;28;20187;-69
2021/01/26 06:02:14;;;;;;;1.27;1.17;;;-7.70;99.90;;;;;;5004432;28;20190;-69
2021/01/26 06:04:40;;;;;;;1.00;1.00;;;-7.70;99.90;;;;;;4996663;28;20221;-70
2021/01/26 06:07:22;;;;;;;1.10;1.00;;;-7.70;99.90;;;;;;5002119;28;20195;-70
2021/01/26 06:09:49;;;;;;;1.30;1.20;;;-7.70;99.90;;;;;;4993619;28;20199;-70
2021/01/26 06:12:27;;;;;;;1.13;1.07;;;-7.70;99.90;;;;;;4994941;28;20203;-70
2021/01/26 06:14:57;;;;;;;0.93;0.93;;;-7.70;99.90;;;;;;4995506;28;20234;-70
2021/01/26 06:17:31;;;;;;;1.10;1.10;;;-7.60;99.90;;;;;;4987130;28;20191;-70
2021/01/26 06:20:20;;;;;;;2.80;1.10;;;-7.60;99.90;;;;;;4989918;28;20238;-69
2021/01/26 06:22:47;;;;;;;1.00;1.00;;;-7.60;99.90;;;;;;4977622;28;20204;-69
2021/01/26 06:25:33;;;;;;;1.27;1.10;;;-7.60;99.90;;;;;;4993427;28;20290;-69
2021/01/26 06:28:16;;;;;;;1.30;1.20;;;-7.60;99.90;;;;;;4995216;28;20289;-70
2021/01/26 06:31:09;;;;;;;1.87;1.23;;;-7.60;99.90;;;;;;4995222;28;20266;-70
2021/01/26 06:34:08;;;;;;;2.63;1.90;;;-7.60;99.90;;;;;;4972706;28;20277;-70
2021/01/26 06:36:51;;;;;;;1.73;1.40;;;-7.50;99.90;;;;;;4992774;28;20203;-70
2021/01/26 06:39:32;;;;;;;1.70;1.50;;;-7.60;99.90;;;;;;4994216;28;20206;-69
2021/01/26 06:42:09;;;;;;;1.87;1.60;;;-7.60;99.90;;;;;;4994721;28;20340;-70
2021/01/26 06:44:53;;;;;;;1.70;1.40;;;-7.60;99.90;;;;;;4996801;28;20847;-70
2021/01/26 06:47:38;;;;;;;1.23;1.13;;;-7.60;99.90;;;;;;4977966;28;20199;-70
2021/01/26 06:50:18;;;;;;;1.30;1.10;;;-7.70;99.90;;;;;;4996859;28;20199;-70
2021/01/26 06:53:04;;;;;;;1.40;1.17;;;-7.70;99.90;;;;;;5001609;28;20201;-70
2021/01/26 06:55:55;;;;;;;5.93;1.13;;;-7.70;99.90;;;;;;4998606;28;20298;-70
2021/01/26 06:58:40;;;;;;;1.67;1.30;;;-7.60;99.90;;;;;;4993368;28;20309;-70
2021/01/26 07:01:29;;;;;;;1.17;1.07;;;-7.70;99.90;;;;;;4994167;28;20636;-70
2021/01/26 07:04:06;;;;;;;1.83;1.20;;;-7.60;99.90;;;;;;4998645;28;20578;-70
2021/01/26 07:06:37;;;;;;;1.40;1.30;;;-7.60;99.90;;;;;;4982076;28;20237;-70
2021/01/26 07:09:22;;;;;;;1.30;1.20;;;-7.60;99.90;;;;;;5000044;28;20210;-69
2021/01/26 07:11:47;;;;;;;1.50;1.20;;;-7.60;99.90;;;;;;4994610;28;20260;-69
2021/01/26 07:14:35;;;;;;;1.67;1.40;;;-7.60;99.90;;;;;;4995496;28;20597;-70
2021/01/26 07:17:05;;;;;;;1.87;1.57;;;-7.60;99.90;;;;;;4995042;28;20192;-69
2021/01/26 07:19:59;;;;;;;1.80;1.37;;;-7.70;99.90;;;;;;4994059;28;20261;-70
2021/01/26 07:22:57;;;;;;;1.30;1.20;;;-7.70;99.90;;;;;;4994186;28;20199;-70
2021/01/26 07:25:47;;;;;;;1.20;1.10;;;-7.70;99.90;;;;;;4997362;28;20274;-71
2021/01/26 07:28:33;;;;;;;1.30;1.20;;;-7.70;99.90;;;;;;4991226;28;20230;-69
2021/01/26 07:31:05;;;;;;;3.00;1.30;;;-7.70;99.90;;;;;;4991273;28;20642;-70
2021/01/26 07:33:45;;;;;;;1.17;1.03;;;-7.70;99.90;;;;;;4997334;28;20377;-69
2021/01/26 07:36:36;;;;;;;1.20;1.10;;;-7.70;99.90;;;;;;4991972;28;20210;-70
2021/01/26 07:39:24;;;;;;;1.20;1.10;;;-7.60;99.90;;;;;;4990306;28;20199;-69
2021/01/26 07:42:04;;;;;;;1.10;1.00;;;-7.60;99.90;;;;;;4990607;28;20198;-69
2021/01/26 07:44:39;;;;;;;1.40;1.30;;;-7.60;99.90;;;;;;4994658;28;20203;-70
2021/01/26 07:47:26;;;;;;;1.10;1.10;;;-7.60;99.90;;;;;;4999839;28;20224;-70
2021/01/26 07:49:57;;;;;;;1.53;1.30;;;-7.60;99.90;;;;;;4993440;28;20202;-70
2021/01/26 07:52:27;;;;;;;1.10;1.10;;;-7.60;99.90;;;;;;4991970;28;20256;-70
2021/01/26 07:55:12;;;;;;;1.00;1.00;;;-7.60;99.90;;;;;;4991621;28;20210;-70
2021/01/26 07:57:56;;;;;;;1.00;1.00;;;-7.60;99.90;;;;;;5000077;28;20198;-70
2021/01/26 08:00:24;;;;;;;1.17;1.07;;;-7.60;99.90;;;;;;4996187;28;20326;-69
2021/01/26 08:02:56;;;;;;;1.73;1.10;;;-7.50;99.90;;;;;;4990405;28;20787;-70
2021/01/26 08:05:39;;;;;;;3.70;1.10;;;-7.50;99.90;;;;;;4995821;28;21004;-70
2021/01/26 08:08:07;;;;;;;1.17;1.10;;;-7.50;99.90;;;;;;4992687;28;20211;-70
2021/01/26 08:10:34;;;;;;;0.97;0.97;;;-7.50;99.90;;;;;;4994332;28;20748;-70
2021/01/26 08:13:01;;;;;;;1.10;1.00;;;-7.50;99.90;;;;;;4993093;28;20203;-70
2021/01/26 08:15:29;;;;;;;1.63;1.20;;;-7.50;99.90;;;;;;4996135;28;20214;-70
2021/01/26 08:17:55;;;;;;;1.00;1.00;;;-7.50;99.90;;;;;;4988318;28;20740;-70
2021/01/26 08:20:24;;;;;;;1.00;1.00;;;-7.30;99.90;;;;;;4990588;28;21099;-70
2021/01/26 08:23:10;;;;;;;0.97;0.97;;;-7.30;99.90;;;;;;4988907;28;20234;-70
2021/01/26 08:25:38;;;;;;;1.03;1.00;;;-7.10;99.90;;;;;;4975162;28;20509;-70
2021/01/26 08:28:09;;;;;;;0.90;0.90;;;-7.00;99.90;;;;;;4995995;28;20211;-70
2021/01/26 08:30:46;;;;;;;1.07;0.97;;;-7.00;99.90;;;;;;4993904;28;20685;-71
2021/01/26 08:33:16;;;;;;;1.07;0.97;;;-7.00;99.90;;;;;;4999896;28;20198;-70
2021/01/26 08:36:05;;;;;;;1.20;1.10;;;-7.00;99.90;;;;;;4980648;28;20213;-70
2021/01/26 08:38:52;;;;;;;1.00;1.00;;;-7.10;99.90;;;;;;5000063;28;20234;-70
2021/01/26 08:41:51;;;;;;;1.03;1.00;;;-7.10;99.90;;;;;;5001191;28;20329;-70
2021/01/26 08:44:20;;;;;;;1.10;1.00;;;-7.10;99.90;;;;;;4995979;28;20199;-70
2021/01/26 08:46:47;;;;;;;1.20;1.10;;;-7.00;99.90;;;;;;5001386;28;20203;-70
2021/01/26 08:49:28;;;;;;;1.40;1.10;;;-7.00;99.90;;;;;;4998131;28;20621;-70
2021/01/26 08:51:55;;;;;;;0.90;0.90;;;-7.00;99.90;;;;;;4998029;28;20191;-70
2021/01/26 08:54:42;;;;;;;1.80;1.13;;;-7.00;99.90;;;;;;5000908;28;20191;-70
2021/01/26 08:57:29;;;;;;;1.23;1.13;;;-7.00;99.90;;;;;;4991253;28;20205;-70
2021/01/26 09:00:18;;;;;;;1.20;1.10;;;-7.00;99.90;;;;;;5000017;28;20291;-70
2021/01/26 09:02:48;;;;;;;1.00;1.00;;;-6.90;99.90;;;;;;4981073;28;20235;-70
2021/01/26 09:05:33;;;;;;;1.10;1.00;;;-6.90;99.90;;;;;;4999139;28;20621;-70
2021/01/26 09:08:05;;;;;;;1.00;1.00;;;-6.80;99.90;;;;;;4998885;28;20211;-71
2021/01/26 09:10:33;;;;;;;1.00;1.00;;;-6.80;99.90;;;;;;4997992;28;20650;-70
2021/01/26 09:13:25;;;;;;;3.27;1.13;;;-6.70;99.90;;;;;;4994047;28;20260;-70
2021/01/26 09:15:54;;;;;;;1.17;1.07;;;-6.60;99.90;;;;;;4996202;28;20515;-69
2021/01/26 09:18:23;;;;;;;1.13;1.07;;;-6.60;99.90;;;;;;4980654;28;20194;-70
2021/01/26 09:21:01;;;;;;;1.63;1.20;;;-6.50;99.90;;;;;;4996840;28;20623;-70
2021/01/26 09:23:29;;;;;;;1.10;1.10;;;-6.50;99.90;;;;;;4999995;28;20195;-70
2021/01/26 09:25:55;;;;;;;2.70;1.30;;;-6.50;99.90;;;;;;4999344;28;20529;-71
2021/01/26 09:28:22;;;;;;;1.20;1.10;;;-6.50;99.90;;;;;;5000609;28;20206;-70
2021/01/26 09:30:57;;;;;;;1.53;1.20;;;-6.50;99.90;;;;;;5002494;28;20195;-70
2021/01/26 09:33:27;;;;;;;1.30;1.20;;;-6.40;99.90;;;;;;4977869;28;20198;-70
2021/01/26 09:36:02;;;;;;;1.60;1.40;;;-6.40;99.90;;;;;;5001351;28;20260;-70
2021/01/26 09:38:32;;;;;;;2.13;1.30;;;-6.30;99.90;;;;;;4995926;28;20198;-70
2021/01/26 09:41:04;;;;;;;1.10;1.00;;;-6.10;99.90;;;;;;4980941;28;20722;-69
2021/01/26 09:43:37;;;;;;;2.10;1.50;;;-6.00;99.90;;;;;;4995101;28;20279;-70
2021/01/26 09:46:12;;;;;;;1.20;1.10;;;-5.70;99.90;;;;;;4995218;28;20648;-70
2021/01/26 09:48:44;;;;;;;1.10;1.00;;;-5.60;99.90;;;;;;4999484;28;20221;-70
2021/01/26 09:51:50;;;;;;;3.53;1.20;;;-5.40;99.90;;;;;;4997569;28;20207;-70
2021/01/26 09:54:22;;;;;;;1.40;1.20;;;-5.10;99.90;;;;;;4925655;29;20741;-70
2021/01/26 09:56:48;;;;;;;1.73;1.20;;;-5.00;99.90;;;;;;4981860;28;20277;-69
2021/01/26 09:59:15;;;;;;;1.17;1.08;;;-4.90;99.90;;;;;;4994992;28;20677;-69
2021/01/26 10:01:43;;;;;;;1.30;1.20;;;-4.90;99.90;;;;;;4975836;28;20270;-70
2021/01/26 10:04:10;;;;;;;3.60;2.22;;;-4.80;99.90;;;;;;4982934;28;20242;-70
2021/01/26 10:06:36;;;;;;;3.08;1.80;;;-4.80;99.90;;;;;;4996894;28;20270;-71
2021/01/26 10:09:12;;;;;;;2.30;1.60;;;-4.80;99.90;;;;;;4995818;28;20609;-71
2021/01/26 10:11:39;;;;;;;2.37;1.40;;;-4.70;99.90;;;;;;4984250;28;20255;-70
2021/01/26 10:14:24;;;;;;;1.90;1.42;;;-4.60;99.90;;;;;;4997578;28;20191;-69
2021/01/26 10:16:54;;;;;;;2.47;1.23;;;-4.50;99.90;;;;;;4994464;28;20196;-71
2021/01/26 10:19:33;;;;;;;1.00;1.00;;;-4.30;99.90;;;;;;4988264;28;20345;-71
2021/01/26 10:22:18;;;;;;;1.48;1.10;;;-4.10;99.90;;;;;;4999832;28;20190;-70
2021/01/26 10:24:45;;;;;;;1.10;1.00;;;-3.90;99.90;;;;;;4992209;28;20191;-71
2021/01/26 10:27:23;;;;;;;1.30;1.20;;;-3.80;99.90;;;;;;4993864;28;20203;-70
2021/01/26 10:30:04;;;;;;;1.27;1.15;;;-3.80;99.90;;;;;;4995684;28;20203;-70
2021/01/26 10:32:42;;;;;;;1.48;1.00;;;-3.70;99.90;;;;;;4994845;28;20211;-70
2021/01/26 10:35:33;;;;;;;1.00;1.00;;;-3.50;99.90;;;;;;4995598;28;20611;-70
2021/01/26 10:38:25;;;;;;;1.80;1.08;;;-3.50;99.90;;;;;;4993759;28;20196;-70
2021/01/26 10:41:05;;;;;;;2.10;1.23;;;-3.40;99.90;;;;;;4996339;28;20191;-70
2021/01/26 10:43:31;;;;;;;2.67;1.90;;;-3.50;99.90;;;;;;4994756;28;20608;-70
2021/01/26 10:45:56;;;;;;;4.78;2.22;;;-3.40;99.90;;;;;;4998032;28;20210;-70
2021/01/26 10:48:22;;;;;;;4.53;2.38;;;-3.30;99.90;;;;;;4998433;28;20309;-69
2021/01/26 10:50:49;;;;;;;3.50;2.17;;;-3.20;99.90;;;;;;4977405;28;20238;-70
2021/01/26 10:53:33;;;;;;;2.63;1.80;;;-3.00;99.90;;;;;;4996284;28;20200;-71
2021/01/26 10:56:00;;;;;;;1.15;0.93;;;-3.00;99.90;;;;;;4991120;28;20207;-70
2021/01/26 10:58:26;;;;;;;1.30;1.20;;;-3.00;99.90;;;;;;4991142;28;20250;-70
2021/01/26 11:00:52;;;;;;;1.20;1.10;;;-3.10;99.90;;;;;;4994630;28;20187;-70
2021/01/26 11:03:17;;;;;;;2.08;1.27;;;-3.10;99.90;;;;;;4997676;28;20218;-70
2021/01/26 11:05:43;;;;;;;2.53;1.40;;;-3.30;99.90;;;;;;4993160;28;20249;-70
2021/01/26 11:08:09;;;;;;;5.30;2.20;;;-3.30;99.90;;;;;;4997792;28;20205;-70
2021/01/26 11:10:36;;;;;;;1.60;1.40;;;-3.30;99.90;;;;;;4993843;28;20272;-69
2021/01/26 11:13:01;;;;;;;1.38;1.27;;;-3.20;99.90;;;;;;4996430;28;20244;-70
2021/01/26 11:15:27;;;;;;;1.10;1.00;;;-3.10;99.90;;;;;;4988550;28;20440;-70
2021/01/26 11:17:53;;;;;;;3.45;1.65;;;-3.00;99.90;;;;;;4994958;28;20557;-70
2021/01/26 11:20:20;;;;;;;1.20;1.10;;;-2.80;99.90;;;;;;4996081;28;20578;-70
2021/01/26 11:22:46;;;;;;;0.90;0.90;;;-2.90;99.90;;;;;;4991219;28;20222;-70
2021/01/26 11:25:12;;;;;;;1.90;1.10;;;-2.90;99.90;;;;;;4995518;28;20206;-70
2021/01/26 11:27:38;;;;;;;1.00;1.00;;;-3.00;99.90;;;;;;4988695;28;20208;-70
2021/01/26 11:30:05;;;;;;;1.20;1.05;;;-2.90;99.90;;;;;;4978606;28;20217;-70
2021/01/26 11:32:31;;;;;;;1.10;1.00;;;-2.90;99.90;;;;;;5004043;28;21080;-70
2021/01/26 11:34:57;;;;;;;1.00;1.00;;;-2.90;99.90;;;;;;5003866;28;20232;-70
2021/01/26 11:37:22;;;;;;;1.10;1.00;;;-2.80;99.90;;;;;;5009199;28;20202;-70
2021/01/26 11:39:48;;;;;;;1.10;1.00;;;-2.80;99.90;;;;;;5010489;28;20212;-70
2021/01/26 11:42:14;;;;;;;1.00;1.00;;;-2.80;99.90;;;;;;5005121;28;20668;-70
2021/01/26 11:44:39;;;;;;;1.00;1.00;;;-2.70;99.90;;;;;;5007119;28;20751;-70
2021/01/26 11:47:05;;;;;;;1.10;1.00;;;-2.60;99.90;;;;;;4983769;28;20202;-70
2021/01/26 11:49:31;;;;;;;1.10;1.00;;;-2.50;99.90;;;;;;5008433;28;20213;-70
2021/01/26 11:51:56;;;;;;;1.00;1.00;;;-2.40;99.90;;;;;;5003815;28;20301;-70
2021/01/26 11:54:22;;;;;;;1.10;1.00;;;-2.50;99.90;;;;;;4994633;28;20219;-70
2021/01/26 11:56:48;;;;;;;0.90;0.90;;;-2.60;99.90;;;;;;5001238;28;20231;-70
2021/01/26 11:59:14;;;;;;;1.10;1.00;;;-2.60;99.90;;;;;;4980971;28;20201;-70
2021/01/26 12:01:40;;;;;;;3.25;1.10;;;-2.80;99.90;;;;;;4998758;28;20195;-70
2021/01/26 12:04:05;;;;;;;3.22;1.00;;;-2.80;99.90;;;;;;5000746;28;20731;-71
2021/01/26 12:06:31;;;;;;;1.27;1.17;;;-2.90;99.90;;;;;;4999618;28;20225;-70
2021/01/26 12:08:57;;;;;;;1.65;1.20;;;-2.90;99.90;;;;;;5002963;28;20210;-70
2021/01/26 12:11:23;;;;;;;1.20;1.10;;;-3.00;99.90;;;;;;5001025;28;20209;-70
2021/01/26 12:13:48;;;;;;;1.13;1.00;;;-3.00;99.90;;;;;;4992471;28;20212;-70
2021/01/26 12:16:14;;;;;;;0.95;0.90;;;-3.00;99.90;;;;;;4980831;28;20684;-70
2021/01/26 12:18:39;;;;;;;1.30;1.20;;;-3.10;99.90;;;;;;4994991;28;20682;-71
2021/01/26 12:21:06;;;;;;;1.15;1.05;;;-2.90;99.90;;;;;;4994259;28;20206;-71
2021/01/26 12:23:31;;;;;;;1.00;1.00;;;-2.80;99.90;;;;;;4993997;28;20207;-70
2021/01/26 12:25:59;;;;;;;0.90;0.90;;;-3.00;99.90;;;;;;4979442;28;20207;-70
2021/01/26 12:28:25;;;;;;;1.20;1.10;;;-3.00;99.90;;;;;;4997603;28;20373;-71
2021/01/26 12:30:53;;;;;;;1.20;1.10;;;-3.10;99.90;;;;;;4999474;28;20196;-70
2021/01/26 12:33:18;;;;;;;0.93;0.90;;;-3.30;99.90;;;;;;5000893;28;20199;-70
2021/01/26 12:35:44;;;;;;;1.13;1.02;;;-3.20;99.90;;;;;;4995897;28;20218;-70
2021/01/26 12:38:10;;;;;;;1.45;1.00;;;-3.10;99.90;;;;;;4979535;28;20198;-70
2021/01/26 12:40:38;;;;;;;2.20;1.00;;;-3.20;99.90;;;;;;4994665;28;20199;-70
2021/01/26 12:43:04;;;;;;;1.20;0.98;;;-3.30;99.90;;;;;;4995253;28;20198;-69
2021/01/26 12:45:31;;;;;;;1.10;1.00;;;-3.40;99.90;;;;;;4999200;28;20203;-69
2021/01/26 12:47:57;;;;;;;1.30;1.20;;;-3.50;99.90;;;;;;4987517;28;20199;-69
2021/01/26 12:50:25;;;;;;;1.42;1.20;;;-3.50;99.90;;;;;;4979733;28;20199;-69
2021/01/26 12:52:51;;;;;;;1.25;1.15;;;-3.60;99.90;;;;;;4991308;28;20199;-70
2021/01/26 12:55:17;;;;;;;2.05;1.10;;;-3.70;99.90;;;;;;5002603;28;20296;-70
2021/01/26 12:57:43;;;;;;;1.10;1.00;;;-3.70;99.90;;;;;;4998054;28;20202;-70
2021/01/26 13:00:12;;;;;;;1.20;1.10;;;-3.70;99.90;;;;;;5003147;28;20191;-70
2021/01/26 13:02:37;;;;;;;1.00;1.00;;;-3.70;99.90;;;;;;4997139;28;20302;-71
2021/01/26 13:05:05;;;;;;;1.00;0.90;;;-3.70;99.90;;;;;;5000165;28;20207;-70
2021/01/26 13:07:30;;;;;;;1.15;1.05;;;-3.80;99.90;;;;;;4998871;28;20763;-71
2021/01/26 13:09:56;;;;;;;1.25;1.15;;;-3.90;99.90;;;;;;4997774;28;20281;-69
2021/01/26 13:12:22;;;;;;;1.30;1.00;;;-3.90;99.90;;;;;;4998594;28;20803;-70
2021/01/26 13:14:47;;;;;;;6.18;1.05;;;-4.00;99.90;;;;;;4995058;28;20211;-70
2021/01/26 13:17:14;;;;;;;1.30;1.20;;;-4.10;99.90;;;;;;4995727;28;20266;-71